Typo in UA Study Guide

Joined
Jul 22, 2018
Messages
4
Reaction score
0
Age
52
TOTAL newb here. Studying to get my UA cert, just learning how to read TAF's. Stumbled across, what I think is a typo on page 18 of FAA-G-8082-22 (section pasted below). I don't see the part described on line 2 of the explanation in the example report. It looks to me like there should be a 15012KT P6SM BKN090 after 1112/1212 and before TEMPO. Can someone tell me whether or not I am correct, or what I may be misreading here? Thanks for your time.
upload_2018-7-22_21-34-37.png
 
Last edited:
Joined
Sep 9, 2016
Messages
246
Reaction score
93
Location
Rochester,NY
ICBW, I believe you're are correct.

It is hard to read the example as the formatting is all run together. Here's how it looks for an actual one:

KPIR 231120Z 2312/2412 35008KT P6SM SKC
FM232300 36009KT P6SM SKC
FM240200 03005KT P6SM SKC
FM240700 VRB03KT P6SM FEW200

Easier to read, right?
 
Joined
Jul 22, 2018
Messages
4
Reaction score
0
Age
52
Thank you! Being so new at this stuff, I just assumed I was missing something! That IS easier to read!
 

New Threads

Members online

Forum statistics

Threads
141,864
Messages
1,458,812
Members
103,652
Latest member
mike07